createdAt,value
2019-01-21T00:00:19.542Z,18.87
2019-01-21T00:01:38.184Z,18.87
2019-01-21T00:02:34.844Z,18.87
2019-01-21T00:03:31.478Z,18.87
2019-01-21T00:04:28.613Z,18.81
2019-01-21T00:05:25.812Z,18.81
2019-01-21T00:06:22.592Z,18.87
2019-01-21T00:07:19.271Z,18.81
2019-01-21T00:08:16.115Z,18.81
2019-01-21T00:09:12.811Z,18.81
2019-01-21T00:10:09.526Z,18.81
2019-01-21T00:11:06.351Z,18.81
2019-01-21T00:12:04.534Z,18.81
2019-01-21T00:13:01.255Z,18.81
2019-01-21T00:13:57.974Z,18.81
2019-01-21T00:14:54.687Z,18.81
2019-01-21T00:15:51.404Z,18.81
2019-01-21T00:16:48.154Z,18.81
2019-01-21T00:17:44.767Z,18.81
2019-01-21T00:18:41.412Z,18.81
2019-01-21T00:19:40.084Z,18.81
2019-01-21T00:20:36.922Z,18.81
2019-01-21T00:21:33.642Z,18.81
2019-01-21T00:22:30.668Z,18.81
2019-01-21T00:23:27.319Z,18.81
2019-01-21T00:24:23.939Z,18.81
2019-01-21T00:25:20.802Z,18.75
2019-01-21T00:26:17.521Z,18.81
2019-01-21T00:27:14.354Z,18.75
2019-01-21T00:28:11.058Z,18.75
2019-01-21T00:29:07.820Z,18.75
2019-01-21T00:30:04.625Z,18.75
2019-01-21T00:31:04.459Z,18.75
2019-01-21T00:32:01.130Z,18.75
2019-01-21T00:32:57.729Z,18.75
2019-01-21T00:33:54.363Z,18.75
2019-01-21T00:34:51.346Z,18.75
2019-01-21T00:35:47.955Z,18.75
2019-01-21T00:36:50.686Z,18.75
2019-01-21T00:37:47.398Z,18.75
2019-01-21T00:38:45.879Z,18.75
2019-01-21T00:39:42.583Z,18.75
2019-01-21T00:40:39.313Z,18.75
2019-01-21T00:41:36.022Z,18.75
2019-01-21T00:42:32.746Z,18.75
2019-01-21T00:43:29.435Z,18.75
2019-01-21T00:44:26.291Z,18.75
2019-01-21T00:45:22.910Z,18.75
2019-01-21T00:46:19.514Z,18.75
2019-01-21T00:47:16.131Z,18.69
2019-01-21T00:48:12.951Z,18.69
2019-01-21T00:49:09.575Z,18.69
2019-01-21T00:50:06.170Z,18.69
2019-01-21T00:51:02.811Z,18.69
2019-01-21T00:51:59.412Z,18.69
2019-01-21T00:52:56.041Z,18.69
2019-01-21T00:53:52.862Z,18.69
2019-01-21T00:54:51.012Z,18.69
2019-01-21T00:55:47.887Z,18.69
2019-01-21T00:56:44.507Z,18.69
2019-01-21T00:57:41.118Z,18.69
2019-01-21T00:58:37.717Z,18.69
2019-01-21T00:59:34.365Z,18.69
2019-01-21T01:00:30.982Z,18.69
2019-01-21T01:01:27.806Z,18.69
2019-01-21T01:02:24.398Z,18.69
2019-01-21T01:03:20.989Z,18.69
2019-01-21T01:04:17.612Z,18.69
2019-01-21T01:05:14.274Z,18.69
2019-01-21T01:06:10.867Z,18.69
2019-01-21T01:07:07.570Z,18.62
2019-01-21T01:08:04.277Z,18.69
2019-01-21T01:09:00.986Z,18.62
2019-01-21T01:09:59.677Z,18.62
2019-01-21T01:10:59.052Z,18.62
2019-01-21T01:11:55.637Z,18.69
2019-01-21T01:12:52.262Z,18.62
2019-01-21T01:13:48.914Z,18.62
2019-01-21T01:14:45.566Z,18.62
2019-01-21T01:15:42.218Z,18.62
2019-01-21T01:16:38.926Z,18.62
2019-01-21T01:17:37.309Z,18.62
2019-01-21T01:18:34.037Z,18.62
2019-01-21T01:19:31.066Z,18.62
2019-01-21T01:20:27.799Z,18.62
2019-01-21T01:21:24.491Z,18.62
2019-01-21T01:22:21.118Z,18.62
2019-01-21T01:23:17.715Z,18.62
2019-01-21T01:24:16.125Z,18.62
2019-01-21T01:25:12.821Z,18.62
2019-01-21T01:26:09.459Z,18.62
2019-01-21T01:27:06.338Z,18.62
2019-01-21T01:28:02.942Z,18.62
2019-01-21T01:28:59.538Z,18.62
2019-01-21T01:29:56.126Z,18.62
2019-01-21T01:30:55.124Z,18.56
2019-01-21T01:31:51.734Z,18.56
2019-01-21T01:32:48.766Z,18.56
2019-01-21T01:33:45.386Z,18.56
2019-01-21T01:34:41.986Z,18.56
2019-01-21T01:35:39.101Z,18.56
2019-01-21T01:36:35.789Z,18.56
2019-01-21T01:37:32.490Z,18.56
2019-01-21T01:38:29.091Z,18.56
2019-01-21T01:39:25.683Z,18.56
2019-01-21T01:40:22.282Z,18.56
2019-01-21T01:41:18.926Z,18.56
2019-01-21T01:42:15.527Z,18.56
2019-01-21T01:43:13.353Z,18.56
2019-01-21T01:44:10.502Z,18.56
2019-01-21T01:45:07.194Z,18.56
2019-01-21T01:46:03.931Z,18.56
2019-01-21T01:47:00.694Z,18.56
2019-01-21T01:47:57.382Z,18.56
2019-01-21T01:48:54.239Z,18.56
2019-01-21T01:49:50.931Z,18.56
2019-01-21T01:50:47.558Z,18.56
2019-01-21T01:51:46.992Z,18.56
2019-01-21T01:52:43.618Z,18.56
2019-01-21T01:53:40.326Z,18.56
2019-01-21T01:54:37.135Z,18.50
2019-01-21T01:55:33.735Z,18.50
2019-01-21T01:56:30.878Z,18.50
2019-01-21T01:57:27.490Z,18.50
2019-01-21T01:58:24.101Z,18.50
2019-01-21T01:59:21.021Z,18.50
2019-01-21T02:00:17.765Z,18.50
2019-01-21T02:01:14.525Z,18.50
2019-01-21T02:02:11.598Z,18.50
2019-01-21T02:03:08.206Z,18.50
2019-01-21T02:04:04.814Z,18.50
2019-01-21T02:05:01.525Z,18.50
2019-01-21T02:05:59.317Z,18.50
2019-01-21T02:06:55.977Z,18.50
2019-01-21T02:07:52.989Z,18.50
2019-01-21T02:08:49.703Z,18.50
2019-01-21T02:09:46.674Z,18.50
2019-01-21T02:10:43.649Z,18.50
2019-01-21T02:11:40.262Z,18.50
2019-01-21T02:12:36.889Z,18.50
2019-01-21T02:13:33.814Z,18.50
2019-01-21T02:14:31.714Z,18.44
2019-01-21T02:15:30.646Z,18.50
2019-01-21T02:16:27.258Z,18.50
2019-01-21T02:17:23.998Z,18.50
2019-01-21T02:18:20.631Z,18.44
2019-01-21T02:19:17.662Z,18.44
2019-01-21T02:20:14.270Z,18.44
2019-01-21T02:21:11.263Z,18.44
2019-01-21T02:22:07.884Z,18.44
2019-01-21T02:23:04.606Z,18.44
2019-01-21T02:24:01.357Z,18.44
2019-01-21T02:24:57.959Z,18.44
2019-01-21T02:25:54.670Z,18.44
2019-01-21T02:26:51.270Z,18.44
2019-01-21T02:27:47.985Z,18.44
2019-01-21T02:28:44.710Z,18.44
2019-01-21T02:29:41.401Z,18.44
2019-01-21T02:30:39.801Z,18.44
2019-01-21T02:31:37.901Z,18.44
2019-01-21T02:32:34.556Z,18.44
2019-01-21T02:33:31.279Z,18.44
2019-01-21T02:34:29.275Z,18.44
2019-01-21T02:35:25.966Z,18.44
2019-01-21T02:36:22.689Z,18.44
2019-01-21T02:37:19.665Z,18.44
2019-01-21T02:38:16.266Z,18.44
2019-01-21T02:39:13.170Z,18.44
2019-01-21T02:40:09.762Z,18.37
2019-01-21T02:41:06.362Z,18.37
2019-01-21T02:42:03.110Z,18.37
2019-01-21T02:42:59.841Z,18.37
2019-01-21T02:43:56.615Z,18.37
2019-01-21T02:44:53.305Z,18.37
2019-01-21T02:45:52.187Z,18.37
2019-01-21T02:46:48.888Z,18.37
2019-01-21T02:47:45.493Z,18.37
2019-01-21T02:48:42.143Z,18.37
2019-01-21T02:49:38.999Z,18.37
2019-01-21T02:50:35.699Z,18.37
2019-01-21T02:51:32.378Z,18.37
2019-01-21T02:52:29.210Z,18.37
2019-01-21T02:53:25.918Z,18.37
2019-01-21T02:54:22.771Z,18.37
2019-01-21T02:55:19.488Z,18.37
2019-01-21T02:56:16.195Z,18.37
2019-01-21T02:57:15.851Z,18.37
2019-01-21T02:58:14.724Z,18.37
2019-01-21T02:59:11.333Z,18.37
2019-01-21T03:00:08.212Z,18.37
2019-01-21T03:01:05.270Z,18.37
2019-01-21T03:02:01.890Z,18.37
2019-01-21T03:02:58.681Z,18.37
2019-01-21T03:03:55.361Z,18.37
2019-01-21T03:04:52.000Z,18.31
2019-01-21T03:05:48.606Z,18.31
2019-01-21T03:06:45.625Z,18.31
2019-01-21T03:07:42.222Z,18.31
2019-01-21T03:08:39.083Z,18.31
2019-01-21T03:09:35.711Z,18.31
2019-01-21T03:10:32.458Z,18.31
2019-01-21T03:11:37.801Z,18.31
2019-01-21T03:12:37.434Z,18.31
2019-01-21T03:13:34.354Z,18.31
2019-01-21T03:14:31.211Z,18.31
2019-01-21T03:15:27.925Z,18.31
2019-01-21T03:16:24.626Z,18.31
2019-01-21T03:17:21.398Z,18.31
2019-01-21T03:18:18.024Z,18.31
2019-01-21T03:19:15.234Z,18.31
2019-01-21T03:20:11.883Z,18.31
2019-01-21T03:21:08.586Z,18.31
2019-01-21T03:22:05.290Z,18.31
2019-01-21T03:23:01.982Z,18.31
2019-01-21T03:23:58.801Z,18.31
2019-01-21T03:24:55.508Z,18.31
2019-01-21T03:25:52.234Z,18.31
2019-01-21T03:26:48.881Z,18.31
2019-01-21T03:27:45.548Z,18.31
2019-01-21T03:28:42.168Z,18.25
2019-01-21T03:29:41.510Z,18.25
2019-01-21T03:30:38.109Z,18.25
2019-01-21T03:31:34.844Z,18.25
2019-01-21T03:32:31.560Z,18.25
2019-01-21T03:33:28.245Z,18.25
2019-01-21T03:34:24.972Z,18.25
2019-01-21T03:35:21.669Z,18.25
2019-01-21T03:36:18.467Z,18.25
2019-01-21T03:37:15.174Z,18.25
2019-01-21T03:38:11.858Z,18.25
2019-01-21T03:39:08.454Z,18.25
2019-01-21T03:40:05.200Z,18.25
2019-01-21T03:41:05.039Z,18.25
2019-01-21T03:42:02.847Z,18.25
2019-01-21T03:43:01.018Z,18.25
2019-01-21T03:43:57.618Z,18.25
2019-01-21T03:44:54.230Z,18.25
2019-01-21T03:45:50.935Z,18.25
2019-01-21T03:46:47.706Z,18.25
2019-01-21T03:47:44.309Z,18.25
2019-01-21T03:48:41.260Z,18.25
2019-01-21T03:49:39.354Z,18.25
2019-01-21T03:50:36.058Z,18.25
2019-01-21T03:51:32.936Z,18.25
2019-01-21T03:52:29.687Z,18.25
2019-01-21T03:53:26.386Z,18.25
2019-01-21T03:54:23.181Z,18.25
2019-01-21T03:55:19.827Z,18.19
2019-01-21T03:56:16.442Z,18.25
2019-01-21T03:57:13.311Z,18.19
2019-01-21T03:58:10.006Z,18.19
2019-01-21T03:59:06.694Z,18.19
2019-01-21T04:00:03.639Z,18.19
2019-01-21T04:01:00.307Z,18.19
2019-01-21T04:01:57.159Z,18.19
2019-01-21T04:02:53.852Z,18.19
2019-01-21T04:03:50.458Z,18.19
2019-01-21T04:04:47.058Z,18.19
2019-01-21T04:05:44.001Z,18.19
2019-01-21T04:06:43.606Z,18.19
2019-01-21T04:07:40.229Z,18.19
2019-01-21T04:08:37.110Z,18.19
2019-01-21T04:09:33.817Z,18.19
2019-01-21T04:10:30.512Z,18.19
2019-01-21T04:11:27.197Z,18.19
2019-01-21T04:12:23.907Z,18.19
2019-01-21T04:13:20.512Z,18.19
2019-01-21T04:14:17.143Z,18.19
2019-01-21T04:15:13.842Z,18.19
2019-01-21T04:16:10.443Z,18.19
2019-01-21T04:17:07.152Z,18.19
2019-01-21T04:18:03.837Z,18.19
2019-01-21T04:19:00.466Z,18.19
2019-01-21T04:19:57.058Z,18.19
2019-01-21T04:20:53.879Z,18.19
2019-01-21T04:21:50.486Z,18.19
2019-01-21T04:22:47.130Z,18.19
2019-01-21T04:23:43.832Z,18.19
2019-01-21T04:24:40.551Z,18.12
2019-01-21T04:25:37.260Z,18.12
2019-01-21T04:26:33.970Z,18.12
2019-01-21T04:27:30.689Z,18.12
2019-01-21T04:28:27.407Z,18.12
2019-01-21T04:29:24.019Z,18.12
2019-01-21T04:30:21.047Z,18.12
2019-01-21T04:31:17.760Z,18.12
2019-01-21T04:32:14.367Z,18.12
2019-01-21T04:33:11.128Z,18.12
2019-01-21T04:34:07.851Z,18.12
2019-01-21T04:35:04.532Z,18.12
2019-01-21T04:36:01.318Z,18.12
2019-01-21T04:36:58.040Z,18.12
2019-01-21T04:37:54.770Z,18.12
2019-01-21T04:38:51.554Z,17.94
2019-01-21T04:39:48.249Z,17.19
2019-01-21T04:40:48.198Z,16.87
2019-01-21T04:41:44.807Z,16.75
2019-01-21T04:42:41.413Z,17.25
2019-01-21T04:43:38.283Z,18.75
2019-01-21T04:44:36.424Z,21.06
2019-01-21T04:45:33.071Z,23.69
2019-01-21T04:46:30.067Z,26.06
2019-01-21T04:47:26.669Z,27.81
2019-01-21T04:48:23.576Z,29.12
2019-01-21T04:49:20.286Z,30.12
2019-01-21T04:50:16.998Z,30.31
2019-01-21T04:51:13.796Z,29.50
2019-01-21T04:52:10.791Z,27.94
2019-01-21T04:53:07.396Z,26.25
2019-01-21T04:54:04.134Z,24.75
2019-01-21T04:55:00.739Z,23.56
2019-01-21T04:55:57.755Z,22.69
2019-01-21T04:56:54.339Z,22.13
2019-01-21T04:57:51.247Z,21.81
2019-01-21T04:58:47.869Z,21.62
2019-01-21T04:59:44.578Z,21.50
2019-01-21T05:00:41.270Z,21.44
2019-01-21T05:01:38.006Z,21.37
2019-01-21T05:02:34.606Z,21.25
2019-01-21T05:03:31.622Z,21.19
2019-01-21T05:04:28.343Z,21.19
2019-01-21T05:05:24.934Z,21.12
2019-01-21T05:06:23.417Z,21.06
2019-01-21T05:07:20.469Z,21.06
2019-01-21T05:08:19.590Z,21.00
2019-01-21T05:09:16.442Z,21.00
2019-01-21T05:10:13.092Z,20.94
2019-01-21T05:11:09.942Z,20.94
2019-01-21T05:12:06.635Z,20.88
2019-01-21T05:13:03.236Z,20.81
2019-01-21T05:13:59.970Z,20.81
2019-01-21T05:14:56.693Z,20.75
2019-01-21T05:15:53.390Z,20.75
2019-01-21T05:16:49.999Z,20.75
2019-01-21T05:17:46.607Z,20.75
2019-01-21T05:18:43.622Z,20.69
2019-01-21T05:19:40.309Z,20.69
2019-01-21T05:20:36.995Z,20.69
2019-01-21T05:21:33.772Z,20.69
2019-01-21T05:22:30.386Z,20.69
2019-01-21T05:23:26.999Z,20.62
2019-01-21T05:24:24.034Z,20.62
2019-01-21T05:25:20.654Z,20.62
2019-01-21T05:26:18.500Z,20.62
2019-01-21T05:27:15.195Z,20.56
2019-01-21T05:28:11.791Z,20.56
2019-01-21T05:29:08.390Z,20.56
2019-01-21T05:30:05.471Z,20.56
2019-01-21T05:31:02.345Z,20.56
2019-01-21T05:31:59.027Z,20.56
2019-01-21T05:32:57.431Z,20.56
2019-01-21T05:33:54.950Z,20.56
2019-01-21T05:34:51.651Z,20.62
2019-01-21T05:35:49.680Z,20.75
2019-01-21T05:36:46.640Z,20.94
2019-01-21T05:37:43.241Z,21.19
2019-01-21T05:38:40.341Z,21.50
2019-01-21T05:39:36.953Z,21.75
2019-01-21T05:40:35.377Z,22.19
2019-01-21T05:41:32.038Z,22.62
2019-01-21T05:42:28.683Z,23.19
2019-01-21T05:43:25.602Z,23.75
2019-01-21T05:44:22.223Z,24.37
2019-01-21T05:45:18.832Z,24.94
2019-01-21T05:46:16.044Z,26.06
2019-01-21T05:47:12.755Z,29.19
2019-01-21T05:48:09.343Z,28.62
2019-01-21T05:49:05.966Z,28.62
2019-01-21T05:50:02.586Z,33.31
2019-01-21T05:50:59.383Z,37.31
2019-01-21T05:51:56.099Z,38.44
2019-01-21T05:52:52.718Z,38.44
2019-01-21T05:53:49.330Z,38.00
2019-01-21T05:54:45.939Z,37.00
2019-01-21T05:55:44.035Z,35.69
2019-01-21T05:56:40.647Z,34.00
2019-01-21T05:57:39.102Z,31.44
2019-01-21T05:58:36.500Z,29.00
2019-01-21T05:59:33.209Z,28.19
2019-01-21T06:00:30.078Z,28.81
2019-01-21T06:01:27.040Z,30.00
2019-01-21T06:02:23.783Z,31.19
2019-01-21T06:03:20.505Z,32.19
2019-01-21T06:04:17.216Z,32.94
2019-01-21T06:05:14.835Z,33.50
2019-01-21T06:06:11.462Z,33.94
2019-01-21T06:07:08.157Z,34.31
2019-01-21T06:08:04.795Z,34.56
2019-01-21T06:09:01.495Z,34.81
2019-01-21T06:10:00.290Z,35.00
2019-01-21T06:10:56.930Z,35.13
2019-01-21T06:11:53.767Z,35.31
2019-01-21T06:12:50.454Z,35.38
2019-01-21T06:13:47.082Z,35.50
2019-01-21T06:14:43.682Z,35.56
2019-01-21T06:15:40.613Z,35.69
2019-01-21T06:16:37.227Z,35.81
2019-01-21T06:17:33.843Z,35.88
2019-01-21T06:18:35.586Z,35.94
2019-01-21T06:19:34.976Z,36.00
2019-01-21T06:20:34.657Z,36.13
2019-01-21T06:21:31.280Z,36.25
2019-01-21T06:22:28.232Z,36.31
2019-01-21T06:23:24.829Z,36.38
2019-01-21T06:24:21.479Z,36.50
2019-01-21T06:25:18.079Z,36.63
2019-01-21T06:26:14.682Z,36.69
2019-01-21T06:27:11.505Z,36.75
2019-01-21T06:28:08.198Z,36.88
2019-01-21T06:29:04.831Z,36.94
2019-01-21T06:30:01.431Z,37.00
2019-01-21T06:30:59.757Z,37.13
2019-01-21T06:31:56.494Z,37.19
2019-01-21T06:32:53.179Z,37.25
2019-01-21T06:33:49.859Z,37.31
2019-01-21T06:34:46.636Z,37.38
2019-01-21T06:35:43.237Z,37.44
2019-01-21T06:36:39.835Z,37.50
2019-01-21T06:37:36.430Z,37.56
2019-01-21T06:38:33.098Z,37.63
2019-01-21T06:39:31.417Z,37.69
2019-01-21T06:40:28.099Z,37.75
2019-01-21T06:41:24.707Z,37.81
2019-01-21T06:42:21.346Z,37.88
2019-01-21T06:43:18.043Z,38.00
2019-01-21T06:44:14.680Z,38.00
2019-01-21T06:45:11.343Z,38.06
2019-01-21T06:46:07.967Z,38.13
2019-01-21T06:47:04.898Z,38.19
2019-01-21T06:48:01.503Z,38.25
2019-01-21T06:49:04.416Z,38.31
2019-01-21T06:49:56.644Z,38.31
2019-01-21T06:50:53.542Z,38.44
2019-01-21T06:51:50.153Z,38.44
2019-01-21T06:52:46.833Z,38.50
2019-01-21T06:53:43.443Z,38.56
2019-01-21T06:54:40.406Z,38.56
2019-01-21T06:55:37.077Z,38.63
2019-01-21T06:56:33.838Z,38.63
2019-01-21T06:57:30.760Z,38.69
2019-01-21T06:58:29.170Z,38.75
2019-01-21T06:59:25.940Z,38.75
2019-01-21T07:00:22.659Z,38.81
2019-01-21T07:01:19.263Z,38.88
2019-01-21T07:02:15.877Z,38.94
2019-01-21T07:03:12.515Z,39.00
2019-01-21T07:04:09.202Z,39.00
2019-01-21T07:05:05.983Z,39.06
2019-01-21T07:06:04.130Z,39.13
2019-01-21T07:07:00.842Z,39.13
2019-01-21T07:07:57.459Z,39.19
2019-01-21T07:09:02.582Z,39.25
2019-01-21T07:09:59.280Z,39.25
2019-01-21T07:10:56.105Z,39.31
2019-01-21T07:11:54.011Z,39.38
2019-01-21T07:12:54.253Z,39.38
2019-01-21T07:13:50.859Z,39.44
2019-01-21T07:14:48.594Z,39.50
2019-01-21T07:15:45.319Z,39.56
2019-01-21T07:16:41.985Z,39.69
2019-01-21T07:17:38.733Z,39.75
2019-01-21T07:18:35.418Z,39.81
2019-01-21T07:19:32.230Z,39.88
2019-01-21T07:20:28.855Z,39.94
2019-01-21T07:21:25.502Z,40.00
2019-01-21T07:22:22.191Z,40.06
2019-01-21T07:23:18.846Z,40.19
2019-01-21T07:24:15.462Z,40.25
2019-01-21T07:25:12.066Z,40.38
2019-01-21T07:26:08.698Z,40.50
2019-01-21T07:27:05.318Z,40.56
2019-01-21T07:28:03.096Z,40.69
2019-01-21T07:28:59.772Z,40.69
2019-01-21T07:29:56.385Z,40.56
2019-01-21T07:30:53.158Z,40.38
2019-01-21T07:31:49.760Z,40.19
2019-01-21T07:32:46.489Z,40.06
2019-01-21T07:33:43.112Z,39.94
2019-01-21T07:34:40.337Z,39.88
2019-01-21T07:35:38.172Z,39.81
2019-01-21T07:36:34.863Z,39.75
2019-01-21T07:37:31.506Z,39.69
2019-01-21T07:38:28.270Z,39.75
2019-01-21T07:39:24.981Z,39.69
2019-01-21T07:40:21.653Z,39.63
2019-01-21T07:41:18.273Z,39.63
2019-01-21T07:42:14.930Z,39.56
2019-01-21T07:43:13.834Z,39.56
2019-01-21T07:44:10.637Z,39.50
2019-01-21T07:45:07.371Z,39.50
2019-01-21T07:46:04.002Z,39.44
2019-01-21T07:47:00.883Z,39.44
2019-01-21T07:47:57.544Z,39.31
2019-01-21T07:48:54.411Z,38.88
2019-01-21T07:49:51.131Z,38.06
2019-01-21T07:50:47.819Z,36.69
2019-01-21T07:51:44.624Z,35.19
2019-01-21T07:52:41.338Z,33.75
2019-01-21T07:53:40.252Z,33.13
2019-01-21T07:54:36.952Z,33.75
2019-01-21T07:55:33.679Z,35.00
2019-01-21T07:56:30.358Z,36.31
2019-01-21T07:57:27.013Z,37.38
2019-01-21T07:58:23.641Z,38.19
2019-01-21T07:59:20.857Z,38.75
2019-01-21T08:00:17.562Z,39.13
2019-01-21T08:01:14.162Z,39.44
2019-01-21T08:02:10.818Z,39.69
2019-01-21T08:03:07.523Z,39.94
2019-01-21T08:04:05.968Z,40.06
2019-01-21T08:05:02.594Z,40.19
2019-01-21T08:05:59.209Z,40.31
2019-01-21T08:06:58.642Z,40.44
2019-01-21T08:07:54.466Z,40.56
2019-01-21T08:08:51.176Z,40.63
2019-01-21T08:09:50.184Z,40.81
2019-01-21T08:10:46.801Z,40.94
2019-01-21T08:11:43.457Z,41.00
2019-01-21T08:12:40.718Z,41.00
2019-01-21T08:13:41.464Z,40.81
2019-01-21T08:14:38.334Z,40.63
2019-01-21T08:15:35.037Z,40.38
2019-01-21T08:16:31.653Z,40.25
2019-01-21T08:17:28.359Z,40.19
2019-01-21T08:18:27.096Z,40.06
2019-01-21T08:19:24.237Z,39.94
2019-01-21T08:20:21.372Z,39.88
2019-01-21T08:21:18.190Z,39.81
2019-01-21T08:22:14.885Z,39.81
2019-01-21T08:23:11.530Z,39.75
2019-01-21T08:24:08.232Z,39.69
2019-01-21T08:25:05.014Z,39.69
2019-01-21T08:26:01.631Z,39.63
2019-01-21T08:26:58.267Z,39.56
2019-01-21T08:27:54.879Z,39.50
2019-01-21T08:28:51.497Z,39.13
2019-01-21T08:29:48.254Z,38.44
2019-01-21T08:30:44.854Z,37.25
2019-01-21T08:31:41.460Z,35.69
2019-01-21T08:32:38.442Z,34.25
2019-01-21T08:33:35.105Z,33.44
2019-01-21T08:34:31.790Z,33.88
2019-01-21T08:35:28.626Z,35.13
2019-01-21T08:36:27.183Z,36.56
2019-01-21T08:37:23.751Z,37.81
2019-01-21T08:38:20.455Z,38.75
2019-01-21T08:39:17.044Z,39.50
2019-01-21T08:40:13.676Z,40.00
2019-01-21T08:41:10.395Z,40.44
2019-01-21T08:42:07.160Z,40.75
2019-01-21T08:43:03.883Z,41.00
2019-01-21T08:44:00.721Z,41.19
2019-01-21T08:44:57.429Z,41.31
2019-01-21T08:45:54.067Z,41.19
2019-01-21T08:46:51.111Z,40.88
2019-01-21T08:47:47.786Z,40.63
2019-01-21T08:48:44.491Z,40.44
2019-01-21T08:49:41.143Z,40.31
2019-01-21T08:50:37.878Z,40.12
2019-01-21T08:51:35.667Z,40.00
2019-01-21T08:52:32.894Z,39.88
2019-01-21T08:53:29.506Z,39.81
2019-01-21T08:54:26.104Z,39.75
2019-01-21T08:55:23.090Z,39.69
2019-01-21T08:56:19.695Z,39.63
2019-01-21T08:57:16.471Z,39.63
2019-01-21T08:58:13.172Z,39.50
2019-01-21T08:59:09.798Z,39.25
2019-01-21T09:00:06.831Z,38.63
2019-01-21T09:01:03.453Z,37.63
2019-01-21T09:02:00.498Z,36.25
2019-01-21T09:02:57.479Z,34.81
2019-01-21T09:03:54.074Z,33.75
2019-01-21T09:04:50.682Z,33.69
2019-01-21T09:05:47.351Z,34.69
2019-01-21T09:06:44.046Z,36.13
2019-01-21T09:07:42.135Z,37.44
2019-01-21T09:08:38.726Z,38.50
2019-01-21T09:09:35.452Z,39.38
2019-01-21T09:10:32.049Z,40.00
2019-01-21T09:11:29.035Z,40.56
2019-01-21T09:12:25.773Z,40.94
2019-01-21T09:13:22.381Z,41.19
2019-01-21T09:14:19.212Z,41.25
2019-01-21T09:15:15.925Z,41.06
2019-01-21T09:16:12.691Z,40.81
2019-01-21T09:17:09.406Z,40.56
2019-01-21T09:18:06.580Z,40.38
2019-01-21T09:19:03.325Z,40.25
2019-01-21T09:20:00.028Z,40.12
2019-01-21T09:20:56.717Z,40.00
2019-01-21T09:21:53.372Z,39.94
2019-01-21T09:22:49.982Z,39.81
2019-01-21T09:23:48.393Z,39.75
2019-01-21T09:24:45.358Z,39.75
2019-01-21T09:25:42.268Z,39.69
2019-01-21T09:26:38.913Z,39.63
2019-01-21T09:27:35.640Z,39.38
2019-01-21T09:28:32.285Z,38.94
2019-01-21T09:29:28.998Z,38.06
2019-01-21T09:30:28.161Z,36.94
2019-01-21T09:31:24.775Z,35.44
2019-01-21T09:32:21.435Z,34.19
2019-01-21T09:33:18.191Z,33.63
2019-01-21T09:34:14.918Z,34.25
2019-01-21T09:35:11.625Z,35.56
2019-01-21T09:36:08.228Z,37.00
2019-01-21T09:37:05.053Z,38.25
2019-01-21T09:38:01.681Z,39.38
2019-01-21T09:38:58.340Z,40.19
2019-01-21T09:39:54.959Z,40.81
2019-01-21T09:40:52.095Z,41.19
2019-01-21T09:41:48.730Z,41.25
2019-01-21T09:42:45.491Z,41.06
2019-01-21T09:43:42.225Z,40.81
2019-01-21T09:44:38.826Z,40.56
2019-01-21T09:45:35.644Z,40.38
2019-01-21T09:46:35.005Z,40.19
2019-01-21T09:47:31.809Z,40.00
2019-01-21T09:48:28.455Z,39.88
2019-01-21T09:49:25.284Z,39.81
2019-01-21T09:50:22.014Z,39.75
2019-01-21T09:51:18.715Z,39.69
2019-01-21T09:52:15.705Z,39.63
2019-01-21T09:53:12.349Z,39.44
2019-01-21T09:54:09.192Z,39.06
2019-01-21T09:55:05.822Z,38.31
2019-01-21T09:56:02.452Z,37.31
2019-01-21T09:57:01.899Z,36.13
2019-01-21T09:57:58.615Z,34.94
2019-01-21T09:58:55.416Z,34.00
2019-01-21T09:59:52.164Z,33.13
2019-01-21T10:00:49.112Z,32.19
2019-01-21T10:01:46.134Z,31.31
2019-01-21T10:02:42.884Z,30.62
2019-01-21T10:03:39.734Z,30.06
2019-01-21T10:04:36.453Z,29.69
2019-01-21T10:05:33.090Z,29.37
2019-01-21T10:06:29.985Z,29.12
2019-01-21T10:07:26.779Z,28.87
2019-01-21T10:08:23.527Z,28.69
2019-01-21T10:09:20.222Z,28.56
2019-01-21T10:10:16.871Z,28.44
2019-01-21T10:11:13.796Z,28.25
2019-01-21T10:12:10.419Z,28.06
2019-01-21T10:13:07.027Z,27.94
2019-01-21T10:14:03.843Z,27.75
2019-01-21T10:15:00.562Z,27.62
2019-01-21T10:15:57.256Z,27.50
2019-01-21T10:16:53.846Z,27.44
2019-01-21T10:17:50.482Z,27.31
2019-01-21T10:18:47.110Z,27.19
2019-01-21T10:19:43.837Z,27.13
2019-01-21T10:20:40.476Z,27.00
2019-01-21T10:21:37.093Z,26.94
2019-01-21T10:22:34.018Z,26.81
2019-01-21T10:23:30.627Z,26.75
2019-01-21T10:24:27.246Z,26.69
2019-01-21T10:25:23.915Z,26.56
2019-01-21T10:26:20.551Z,26.44
2019-01-21T10:27:17.274Z,26.37
2019-01-21T10:28:14.002Z,26.31
2019-01-21T10:29:10.723Z,26.25
2019-01-21T10:30:07.446Z,26.12
2019-01-21T10:31:04.230Z,26.06
2019-01-21T10:32:00.853Z,26.00
2019-01-21T10:33:00.646Z,25.94
2019-01-21T10:33:57.300Z,25.88
2019-01-21T10:34:54.016Z,25.81
2019-01-21T10:35:50.671Z,25.75
2019-01-21T10:36:47.430Z,25.69
2019-01-21T10:37:44.131Z,25.56
2019-01-21T10:38:40.750Z,25.50
2019-01-21T10:39:37.581Z,25.44
2019-01-21T10:40:34.327Z,25.37
2019-01-21T10:41:31.325Z,25.31
2019-01-21T10:42:27.963Z,25.25
2019-01-21T10:43:24.670Z,25.19
2019-01-21T10:44:21.283Z,25.12
2019-01-21T10:45:18.112Z,25.06
2019-01-21T10:46:14.767Z,25.00
2019-01-21T10:47:11.647Z,24.94
2019-01-21T10:48:08.393Z,24.87
2019-01-21T10:49:05.014Z,24.81
2019-01-21T10:50:01.761Z,24.75
2019-01-21T10:50:58.484Z,24.75
2019-01-21T10:51:55.361Z,24.69
2019-01-21T10:52:52.083Z,24.63
2019-01-21T10:53:48.810Z,24.56
2019-01-21T10:54:45.419Z,24.50
2019-01-21T10:55:42.125Z,24.44
2019-01-21T10:56:41.037Z,24.37
2019-01-21T10:57:37.738Z,24.31
2019-01-21T10:58:34.340Z,24.25
2019-01-21T10:59:30.971Z,24.25
2019-01-21T11:00:27.614Z,24.19
2019-01-21T11:01:24.674Z,24.12
2019-01-21T11:02:21.479Z,24.06
2019-01-21T11:03:18.187Z,24.06
2019-01-21T11:04:14.783Z,24.00
2019-01-21T11:05:11.426Z,23.94
2019-01-21T11:06:08.038Z,23.94
2019-01-21T11:07:04.663Z,23.87
2019-01-21T11:08:01.299Z,23.81
2019-01-21T11:08:58.045Z,23.75
2019-01-21T11:09:57.226Z,23.75
2019-01-21T11:10:55.290Z,23.69
2019-01-21T11:11:54.130Z,23.62
2019-01-21T11:12:50.627Z,23.56
2019-01-21T11:13:47.245Z,23.56
2019-01-21T11:14:43.850Z,23.50
2019-01-21T11:15:40.434Z,23.50
2019-01-21T11:16:37.075Z,23.44
2019-01-21T11:17:34.095Z,23.38
2019-01-21T11:18:30.713Z,23.38
2019-01-21T11:19:27.555Z,23.31
2019-01-21T11:20:24.290Z,23.25
2019-01-21T11:21:20.898Z,23.25
2019-01-21T11:22:17.538Z,23.19
2019-01-21T11:23:14.511Z,23.19
2019-01-21T11:24:11.165Z,23.12
2019-01-21T11:25:07.934Z,23.06
2019-01-21T11:26:05.859Z,23.00
2019-01-21T11:27:02.574Z,23.00
2019-01-21T11:27:59.209Z,22.94
2019-01-21T11:28:56.182Z,22.94
2019-01-21T11:29:52.859Z,22.87
2019-01-21T11:30:49.563Z,22.87
2019-01-21T11:31:46.425Z,22.81
2019-01-21T11:32:43.157Z,22.75
2019-01-21T11:33:40.031Z,22.75
2019-01-21T11:34:36.800Z,22.69
2019-01-21T11:35:33.570Z,22.69
2019-01-21T11:36:37.091Z,22.62
2019-01-21T11:37:33.698Z,22.62
2019-01-21T11:38:30.362Z,22.56
2019-01-21T11:39:27.090Z,22.56
2019-01-21T11:40:23.773Z,22.50
2019-01-21T11:41:22.767Z,22.44
2019-01-21T11:42:19.523Z,22.44
2019-01-21T11:43:16.388Z,22.44
2019-01-21T11:44:13.076Z,22.37
2019-01-21T11:45:09.792Z,22.37
2019-01-21T11:46:06.705Z,22.31
2019-01-21T11:47:03.330Z,22.31
2019-01-21T11:48:00.316Z,22.25
2019-01-21T11:48:57.024Z,22.25
2019-01-21T11:49:53.683Z,22.19
2019-01-21T11:50:50.497Z,22.19
2019-01-21T11:51:47.187Z,22.13
2019-01-21T11:52:44.057Z,22.13
2019-01-21T11:53:40.765Z,22.06
2019-01-21T11:54:37.511Z,22.06
2019-01-21T11:55:34.223Z,22.00
2019-01-21T11:56:30.880Z,22.00
2019-01-21T11:57:27.750Z,21.94
2019-01-21T11:58:24.458Z,21.94
2019-01-21T11:59:21.145Z,21.94
2019-01-21T12:00:17.882Z,21.87
2019-01-21T12:01:14.607Z,21.87
2019-01-21T12:02:11.215Z,21.81
2019-01-21T12:03:07.821Z,21.81
2019-01-21T12:04:04.442Z,21.81
2019-01-21T12:05:01.164Z,21.75
2019-01-21T12:05:58.465Z,21.75
2019-01-21T12:06:55.327Z,21.69
2019-01-21T12:07:53.364Z,21.69
2019-01-21T12:08:50.044Z,21.69
2019-01-21T12:09:46.778Z,21.62
2019-01-21T12:10:43.435Z,21.62
2019-01-21T12:11:40.090Z,21.56
2019-01-21T12:12:38.558Z,21.56
2019-01-21T12:13:35.250Z,21.50